Terminal Aerodrome Forecast
Issued by NWS

Home | Current Version | Previous Version | Text Only | Print | Product List | Glossary Off
Versions: 1 2 3 4 5 6 7 8 9 10 11 12 13 14 15 16 17 18

000
FTUS43 KMPX 240529
TAFRNH
TAF
KRNH 240529Z 2406/2506 15004KT P6SM OVC016
     FM240800 16004KT P6SM VCSH SCT006 OVC012
      TEMPO 2408/2410 2SM TSRA OVC006CB
     FM241000 23005KT P6SM VCSH OVC009
     FM241300 28007KT P6SM BKN015 OVC250
     FM241600 29010G17KT P6SM SCT030 BKN250
     FM250100 29006KT P6SM FEW250=

USA.gov is the U.S. government's official web portal to all federal, state and local government web resources and services.